Time;durP1;ratioP1;P1;durP2;ratioP2;P2;SDS_P1;SDS_P2;PMS_P1;PMS_P2;Temp;Humidity;BMP_temperature;BMP_pressure;BME280_temperature;BME280_humidity;BME280_pressure;Samples;Min_cycle;Max_cycle;Signal;HPM_P1;HPM_P2
2022/08/08 00:00:56;;;;;;;1.70;1.10;;;16.30;82.50;;;;;;4985286;28;20438;-91
2022/08/08 00:03:36;;;;;;;1.45;1.15;;;15.30;81.20;;;;;;4991436;28;20191;-90
2022/08/08 00:09:27;;;;;;;;;;;;;;;;;;;;;
2022/08/08 00:33:47;;;;;;;2.05;0.95;;;15.30;82.90;;;;;;4892961;29;20289;-90
2022/08/08 00:40:44;;;;;;;;;;;;;;;;;;;;;
2022/08/08 00:44:02;;;;;;;1.47;1.03;;;15.20;83.70;;;;;;4858333;29;20191;-90
2022/08/08 00:50:37;;;;;;;3.85;1.02;;;15.20;84.30;;;;;;4899559;29;21902;-89
2022/08/08 00:53:33;;;;;;;1.42;1.05;;;14.70;84.60;;;;;;4908082;29;20196;-90
2022/08/08 00:56:36;;;;;;;3.28;0.95;;;15.00;86.10;;;;;;5026307;28;20181;-89
2022/08/08 00:59:21;;;;;;;1.17;1.02;;;14.90;87.90;;;;;;5028451;28;20202;-90
2022/08/08 01:02:18;;;;;;;1.27;1.17;;;14.90;89.70;;;;;;5017833;28;20249;-91
2022/08/08 01:05:05;;;;;;;1.75;1.10;;;14.80;89.80;;;;;;5026246;28;20183;-90
2022/08/08 01:08:13;;;;;;;0.80;0.80;;;14.80;90.30;;;;;;5025474;28;20213;-89
2022/08/08 01:11:00;;;;;;;1.17;1.00;;;14.70;90.20;;;;;;5003788;28;20185;-90
2022/08/08 01:13:34;;;;;;;2.60;1.63;;;14.70;90.10;;;;;;5012835;28;20177;-89
2022/08/08 01:16:39;;;;;;;2.95;1.20;;;14.70;90.30;;;;;;5014171;28;20586;-91
2022/08/08 01:19:35;;;;;;;2.35;1.23;;;14.60;90.30;;;;;;5020413;28;20193;-90
2022/08/08 01:22:38;;;;;;;1.27;1.15;;;14.60;90.30;;;;;;5009455;28;20264;-90
2022/08/08 01:25:32;;;;;;;0.80;0.80;;;14.60;90.30;;;;;;5022512;28;20186;-90
2022/08/08 01:28:32;;;;;;;3.25;1.25;;;14.60;90.90;;;;;;5025193;28;20259;-90
2022/08/08 01:31:33;;;;;;;2.25;1.00;;;14.60;91.50;;;;;;5009843;28;20214;-91
2022/08/08 01:34:20;;;;;;;0.90;0.90;;;14.50;92.70;;;;;;4951317;28;20212;-90
2022/08/08 01:37:13;;;;;;;3.40;1.00;;;14.40;92.90;;;;;;5032476;28;20216;-88
2022/08/08 01:40:06;;;;;;;0.77;0.60;;;14.40;92.20;;;;;;5022772;28;20219;-90
2022/08/08 01:42:57;;;;;;;2.00;0.90;;;14.50;92.30;;;;;;5009509;28;20178;-89
2022/08/08 01:45:38;;;;;;;1.85;1.08;;;14.40;93.00;;;;;;5023801;28;20238;-89
2022/08/08 01:48:13;;;;;;;2.38;1.00;;;14.40;93.80;;;;;;5024399;28;20206;-90
2022/08/08 01:51:04;;;;;;;2.88;0.88;;;14.30;93.80;;;;;;5006965;28;20180;-89
2022/08/08 01:53:55;;;;;;;1.98;1.27;;;14.30;94.50;;;;;;5023443;28;21778;-90
2022/08/08 01:56:31;;;;;;;2.13;1.10;;;14.20;96.00;;;;;;5010775;28;20202;-90
2022/08/08 01:59:22;;;;;;;2.10;0.90;;;14.10;95.80;;;;;;5018959;28;20197;-90
2022/08/08 02:02:05;;;;;;;1.90;0.80;;;14.00;96.00;;;;;;5029788;28;20170;-91
2022/08/08 02:04:48;;;;;;;1.77;1.10;;;14.00;96.00;;;;;;5010818;28;20712;-89
2022/08/08 02:07:24;;;;;;;1.50;0.80;;;14.00;96.90;;;;;;5024074;28;20213;-87
2022/08/08 02:10:14;;;;;;;1.10;1.00;;;14.00;96.80;;;;;;5011354;28;20245;-90
2022/08/08 02:12:51;;;;;;;1.30;1.20;;;14.00;97.20;;;;;;5009406;28;20250;-91
2022/08/08 02:15:26;;;;;;;1.15;0.68;;;14.00;97.60;;;;;;5026457;28;20209;-90
2022/08/08 02:17:58;;;;;;;1.95;0.88;;;14.10;97.70;;;;;;5038489;28;20204;-90
2022/08/08 02:20:36;;;;;;;1.17;0.80;;;14.00;97.90;;;;;;5024065;28;20278;-91
2022/08/08 02:23:30;;;;;;;1.15;1.05;;;15.80;98.80;;;;;;5018490;28;20171;-89
2022/08/08 02:26:08;;;;;;;1.30;1.10;;;13.90;98.80;;;;;;5029168;28;20171;-89
2022/08/08 02:28:46;;;;;;;0.93;0.80;;;13.90;99.20;;;;;;5035779;28;20419;-88
2022/08/08 02:31:31;;;;;;;2.15;1.00;;;13.90;99.90;;;;;;5019123;28;20193;-90
2022/08/08 02:34:17;;;;;;;1.10;1.00;;;13.80;99.30;;;;;;5010562;28;20182;-91
2022/08/08 02:36:45;;;;;;;2.10;1.00;;;13.80;99.40;;;;;;5011861;28;20210;-91
2022/08/08 02:39:48;;;;;;;3.92;1.30;;;13.80;99.50;;;;;;5022454;28;20203;-89
2022/08/08 02:42:44;;;;;;;2.65;0.75;;;13.80;99.90;;;;;;5008148;28;20559;-91
2022/08/08 02:45:56;;;;;;;2.10;0.80;;;13.90;99.90;;;;;;5019699;28;20717;-90
2022/08/08 02:49:01;;;;;;;2.75;1.20;;;13.90;99.90;;;;;;5016368;28;20192;-89
2022/08/08 02:51:46;;;;;;;3.50;1.27;;;13.80;99.90;;;;;;5020214;28;20181;-88
2022/08/08 02:54:37;;;;;;;3.72;1.20;;;13.70;99.90;;;;;;5008221;28;20186;-89
2022/08/08 02:57:39;;;;;;;2.72;1.30;;;13.70;99.90;;;;;;5016040;28;20210;-89
2022/08/08 03:00:22;;;;;;;0.82;0.80;;;13.60;99.90;;;;;;5007781;28;20189;-89
2022/08/08 03:03:40;;;;;;;2.75;1.23;;;13.60;99.90;;;;;;5021508;28;20183;-90
2022/08/08 03:06:21;;;;;;;2.15;1.58;;;13.60;99.90;;;;;;5020501;28;20190;-90
2022/08/08 03:09:39;;;;;;;0.80;0.80;;;13.60;99.90;;;;;;5012007;28;20183;-89
2022/08/08 03:12:59;;;;;;;1.00;0.90;;;13.60;99.90;;;;;;5002246;28;20181;-92
2022/08/08 03:15:53;;;;;;;1.48;1.00;;;13.60;99.90;;;;;;4937014;28;20189;-92
2022/08/08 03:18:25;;;;;;;1.30;0.98;;;13.50;99.90;;;;;;5022490;28;20742;-91
2022/08/08 03:20:52;;;;;;;8.73;1.33;;;13.50;99.90;;;;;;4987425;28;20285;-90
2022/08/08 03:23:19;;;;;;;0.80;0.80;;;13.40;99.90;;;;;;5019170;28;20213;-91
2022/08/08 03:25:45;;;;;;;3.25;2.85;;;13.40;99.90;;;;;;5008359;28;20178;-91
2022/08/08 03:28:23;;;;;;;1.95;1.23;;;13.40;99.90;;;;;;5004898;28;20202;-90
2022/08/08 03:30:49;;;;;;;1.35;1.15;;;13.30;99.90;;;;;;5016876;28;20201;-91
2022/08/08 03:33:17;;;;;;;1.00;0.90;;;13.30;99.90;;;;;;5017328;28;20193;-90
2022/08/08 03:35:43;;;;;;;1.50;1.30;;;13.30;99.90;;;;;;5002880;28;20173;-90
2022/08/08 03:38:08;;;;;;;1.30;0.82;;;13.20;99.90;;;;;;5002075;28;20198;-90
2022/08/08 03:40:35;;;;;;;2.50;1.40;;;13.30;99.90;;;;;;5008368;28;20210;-90
2022/08/08 03:43:01;;;;;;;3.78;0.93;;;13.20;99.90;;;;;;5021213;28;20199;-91
2022/08/08 03:45:28;;;;;;;1.27;1.17;;;13.20;99.90;;;;;;5017361;28;20189;-90
2022/08/08 03:48:02;;;;;;;2.58;1.10;;;13.20;99.90;;;;;;5001153;28;20209;-91
2022/08/08 03:50:30;;;;;;;1.23;1.13;;;13.20;99.90;;;;;;5016486;28;20273;-91
2022/08/08 03:53:00;;;;;;;2.45;0.85;;;13.10;99.90;;;;;;5004142;28;20188;-89
2022/08/08 03:55:25;;;;;;;1.65;1.08;;;13.10;99.90;;;;;;5010893;28;20246;-90
2022/08/08 03:57:55;;;;;;;2.13;1.23;;;13.10;99.90;;;;;;5006526;28;20210;-89
2022/08/08 04:00:23;;;;;;;1.20;0.80;;;13.80;99.90;;;;;;5024379;28;20245;-90
2022/08/08 04:03:04;;;;;;;1.80;1.00;;;13.00;99.90;;;;;;5009490;28;20194;-88
2022/08/08 04:05:31;;;;;;;1.83;1.00;;;13.10;99.90;;;;;;4998858;28;20170;-89
2022/08/08 04:07:58;;;;;;;2.25;0.98;;;13.10;99.90;;;;;;5006353;28;20214;-88
2022/08/08 04:10:24;;;;;;;4.47;1.17;;;13.10;99.90;;;;;;5016783;28;20222;-89
2022/08/08 04:12:50;;;;;;;1.48;1.27;;;13.40;99.90;;;;;;5003693;28;20192;-89
2022/08/08 04:15:15;;;;;;;2.73;1.10;;;13.10;99.90;;;;;;4989303;28;20201;-89
2022/08/08 04:17:41;;;;;;;0.80;0.80;;;13.10;99.90;;;;;;4992327;28;20605;-87
2022/08/08 04:20:07;;;;;;;1.03;0.83;;;13.20;99.90;;;;;;5008427;28;20240;-90
2022/08/08 04:22:33;;;;;;;1.77;1.30;;;13.20;99.90;;;;;;4993091;28;20281;-87
2022/08/08 04:24:59;;;;;;;1.80;1.07;;;13.20;99.90;;;;;;5007513;28;20445;-88
2022/08/08 04:27:25;;;;;;;1.93;0.90;;;13.30;99.90;;;;;;4995161;28;20221;-89
2022/08/08 04:29:50;;;;;;;2.88;0.95;;;13.40;99.90;;;;;;5021484;28;20437;-90
2022/08/08 04:32:19;;;;;;;1.30;1.10;;;13.90;99.90;;;;;;5016899;28;20333;-90
2022/08/08 04:34:45;;;;;;;2.78;1.20;;;14.40;99.90;;;;;;4994185;28;20232;-89
2022/08/08 04:37:11;;;;;;;2.00;1.23;;;15.30;99.90;;;;;;4997172;28;20213;-89
2022/08/08 04:39:39;;;;;;;1.80;1.05;;;16.40;99.90;;;;;;5015741;28;20472;-89
2022/08/08 04:42:04;;;;;;;1.50;0.90;;;17.30;98.20;;;;;;5008236;28;20687;-91
2022/08/08 04:44:30;;;;;;;4.37;1.20;;;18.20;95.80;;;;;;5004352;28;20475;-89
2022/08/08 04:46:55;;;;;;;2.20;1.30;;;19.00;94.30;;;;;;5001017;28;20682;-89
2022/08/08 04:49:21;;;;;;;1.03;1.00;;;21.00;92.40;;;;;;5010919;28;21886;-89
2022/08/08 04:51:47;;;;;;;1.80;1.50;;;21.80;82.30;;;;;;5007035;28;20277;-89
2022/08/08 04:54:12;;;;;;;3.07;1.33;;;23.20;78.50;;;;;;5000944;28;20273;-89
2022/08/08 04:56:38;;;;;;;2.30;1.77;;;24.90;72.90;;;;;;5009399;28;20198;-91
2022/08/08 04:59:03;;;;;;;2.00;1.40;;;26.20;60.20;;;;;;5012583;28;20202;-88
2022/08/08 05:01:30;;;;;;;1.67;1.57;;;27.10;58.70;;;;;;5023459;28;20182;-88
2022/08/08 05:03:55;;;;;;;2.93;1.37;;;28.30;55.20;;;;;;5013190;28;20182;-89
2022/08/08 05:06:21;;;;;;;2.27;1.87;;;29.50;52.40;;;;;;5007628;28;21001;-89
2022/08/08 05:08:46;;;;;;;2.60;2.40;;;30.80;49.80;;;;;;5040293;28;20226;-89
2022/08/08 05:11:12;;;;;;;1.50;1.40;;;31.80;46.20;;;;;;5035255;28;20185;-89
2022/08/08 05:13:41;;;;;;;1.60;1.50;;;32.70;42.90;;;;;;5020647;28;20226;-89
2022/08/08 05:16:07;;;;;;;2.00;1.90;;;33.80;40.90;;;;;;5004050;28;20469;-88
2022/08/08 05:18:35;;;;;;;3.60;2.80;;;34.80;39.10;;;;;;5000285;28;20817;-89
2022/08/08 05:21:04;;;;;;;6.60;2.47;;;35.20;37.70;;;;;;4997971;28;20516;-89
2022/08/08 05:23:31;;;;;;;3.90;2.57;;;35.30;36.70;;;;;;5002976;28;20444;-89
2022/08/08 05:25:58;;;;;;;3.30;3.10;;;35.40;36.60;;;;;;5000233;28;20453;-89
2022/08/08 05:28:24;;;;;;;7.50;3.30;;;36.40;36.40;;;;;;5015751;28;21025;-89
2022/08/08 05:30:50;;;;;;;4.43;4.03;;;37.30;34.40;;;;;;5023929;28;20439;-87
2022/08/08 05:33:16;;;;;;;6.57;4.97;;;38.40;32.80;;;;;;5031006;28;20196;-88
2022/08/08 05:35:42;;;;;;;5.23;5.00;;;39.10;31.40;;;;;;4995728;28;20732;-87
2022/08/08 05:38:15;;;;;;;5.97;5.67;;;39.80;30.60;;;;;;5007125;28;20475;-89
2022/08/08 05:40:46;;;;;;;6.70;6.40;;;40.20;28.50;;;;;;5016858;28;20216;-88
2022/08/08 05:43:22;;;;;;;7.07;6.77;;;40.50;28.80;;;;;;5013135;28;20445;-88
2022/08/08 05:45:48;;;;;;;6.93;6.63;;;40.70;27.80;;;;;;5011440;28;20442;-88
2022/08/08 05:48:16;;;;;;;7.63;7.03;;;39.20;27.50;;;;;;5000808;28;20514;-89
2022/08/08 05:50:42;;;;;;;7.07;6.57;;;38.70;28.30;;;;;;4988826;28;20467;-89
2022/08/08 05:53:08;;;;;;;7.60;7.07;;;39.40;28.20;;;;;;4997128;28;20481;-89
2022/08/08 05:55:35;;;;;;;8.33;7.93;;;40.40;27.80;;;;;;5011054;28;21159;-89
2022/08/08 05:58:02;;;;;;;7.70;7.30;;;41.50;27.30;;;;;;5004014;28;20244;-88
2022/08/08 06:00:31;;;;;;;8.27;7.87;;;41.60;26.50;;;;;;5006096;28;20524;-89
2022/08/08 06:03:12;;;;;;;8.50;8.00;;;41.50;26.70;;;;;;4992981;28;20488;-88
2022/08/08 06:05:58;;;;;;;7.87;7.37;;;39.90;26.50;;;;;;5000128;28;20481;-88
2022/08/08 06:08:31;;;;;;;7.77;7.10;;;38.60;27.80;;;;;;5001100;28;20447;-88
2022/08/08 06:10:58;;;;;;;7.43;7.00;;;39.50;27.50;;;;;;4993498;28;20702;-89
2022/08/08 06:13:27;;;;;;;7.80;7.50;;;40.40;27.50;;;;;;4996218;28;20452;-88
2022/08/08 06:15:56;;;;;;;7.60;7.30;;;40.20;27.20;;;;;;4995160;28;20437;-89
2022/08/08 06:18:23;;;;;;;8.00;7.60;;;39.70;26.70;;;;;;4992055;28;20543;-88
2022/08/08 06:20:55;;;;;;;8.40;7.63;;;41.30;26.80;;;;;;5009977;28;20504;-89
2022/08/08 06:23:21;;;;;;;8.40;7.90;;;41.50;26.20;;;;;;4998466;28;20458;-89
2022/08/08 06:26:01;;;;;;;9.00;8.60;;;39.70;26.00;;;;;;5010396;28;20874;-89
2022/08/08 06:28:33;;;;;;;8.00;7.27;;;40.20;26.30;;;;;;4995364;28;20440;-89
2022/08/08 06:31:05;;;;;;;8.43;7.60;;;40.70;26.90;;;;;;5008568;28;20777;-88
2022/08/08 06:33:55;;;;;;;9.30;8.50;;;42.20;26.30;;;;;;5009147;28;21510;-87
2022/08/08 06:36:31;;;;;;;9.90;7.80;;;42.60;25.10;;;;;;5008241;28;20464;-89
2022/08/08 06:39:00;;;;;;;8.60;7.73;;;40.90;25.60;;;;;;5021351;28;20445;-89
2022/08/08 06:41:26;;;;;;;9.20;8.70;;;41.60;26.20;;;;;;5011365;28;20424;-90
2022/08/08 06:43:56;;;;;;;11.47;10.43;;;43.20;25.40;;;;;;5026241;28;20452;-89
2022/08/08 06:46:22;;;;;;;9.87;9.20;;;42.50;24.60;;;;;;5015512;28;20216;-89
2022/08/08 06:48:48;;;;;;;9.87;9.20;;;43.10;25.10;;;;;;4997432;28;20446;-88
2022/08/08 06:51:14;;;;;;;9.47;8.90;;;40.50;24.70;;;;;;5001123;28;20202;-90
2022/08/08 06:53:40;;;;;;;8.77;8.03;;;39.30;26.40;;;;;;5003676;28;21094;-89
2022/08/08 06:56:10;;;;;;;9.70;9.10;;;38.30;26.80;;;;;;4989004;28;20450;-88
2022/08/08 06:58:36;;;;;;;8.17;7.77;;;37.60;27.60;;;;;;4988406;28;21038;-89
2022/08/08 07:01:04;;;;;;;8.60;7.90;;;38.50;27.30;;;;;;4990639;28;20562;-89
2022/08/08 07:03:49;;;;;;;8.10;7.60;;;38.40;27.40;;;;;;5015717;28;20184;-88
2022/08/08 07:06:21;;;;;;;8.97;8.27;;;39.70;27.60;;;;;;4999686;28;20607;-88
2022/08/08 07:08:49;;;;;;;13.60;8.93;;;40.90;26.70;;;;;;4998195;28;20449;-88
2022/08/08 07:11:19;;;;;;;9.93;9.00;;;42.30;25.40;;;;;;4996020;28;20447;-88
2022/08/08 07:13:48;;;;;;;8.87;8.47;;;42.00;24.90;;;;;;5005444;28;20436;-89
2022/08/08 07:16:38;;;;;;;8.43;7.93;;;41.80;25.30;;;;;;4996921;28;20437;-89
2022/08/08 07:19:29;;;;;;;9.00;8.37;;;42.10;25.60;;;;;;5006251;28;20460;-90
2022/08/08 07:22:08;;;;;;;9.47;8.80;;;41.40;25.10;;;;;;5010589;28;20457;-90
2022/08/08 07:24:43;;;;;;;11.07;10.30;;;42.30;25.50;;;;;;5008935;28;20531;-90
2022/08/08 07:27:14;;;;;;;10.30;9.73;;;43.00;25.20;;;;;;4996968;28;20469;-89
2022/08/08 07:29:40;;;;;;;10.17;9.60;;;43.50;24.90;;;;;;4994110;28;20444;-89
2022/08/08 07:32:07;;;;;;;11.90;11.40;;;43.70;24.40;;;;;;5004223;28;20448;-89
2022/08/08 07:34:34;;;;;;;13.50;12.90;;;43.10;24.30;;;;;;4995958;28;20198;-89
2022/08/08 07:37:02;;;;;;;11.43;10.93;;;43.20;24.60;;;;;;4990728;28;20463;-88
2022/08/08 07:39:29;;;;;;;10.93;10.37;;;43.50;25.40;;;;;;5005118;28;20465;-88
2022/08/08 07:41:57;;;;;;;10.93;10.43;;;43.80;25.50;;;;;;5006017;28;21134;-88
2022/08/08 07:44:24;;;;;;;12.07;11.47;;;42.00;24.60;;;;;;5009277;28;20436;-88
2022/08/08 07:46:49;;;;;;;11.50;10.80;;;42.10;25.00;;;;;;5002280;28;20460;-90
2022/08/08 07:49:15;;;;;;;10.53;10.03;;;42.10;25.30;;;;;;5005234;28;20443;-89
2022/08/08 07:51:42;;;;;;;10.30;9.90;;;39.90;25.80;;;;;;5013765;28;20182;-89
2022/08/08 07:54:28;;;;;;;10.77;9.70;;;39.30;26.50;;;;;;4998407;28;20213;-90
2022/08/08 07:57:01;;;;;;;10.30;9.90;;;38.90;26.90;;;;;;5005946;28;20452;-89
2022/08/08 07:59:33;;;;;;;10.20;9.70;;;39.30;27.90;;;;;;5030748;28;20470;-88
2022/08/08 08:02:03;;;;;;;10.47;9.97;;;38.40;27.00;;;;;;5032936;28;20416;-90
2022/08/08 08:04:32;;;;;;;10.13;9.50;;;39.00;27.70;;;;;;5023549;28;20423;-88
2022/08/08 08:07:01;;;;;;;9.80;9.30;;;39.70;27.30;;;;;;5016049;28;20515;-89
2022/08/08 08:09:37;;;;;;;12.40;10.20;;;40.10;26.30;;;;;;5011629;28;20542;-89
2022/08/08 08:12:04;;;;;;;10.13;9.63;;;39.90;26.70;;;;;;5015209;28;20444;-88
2022/08/08 08:14:48;;;;;;;10.40;9.93;;;40.80;27.00;;;;;;5010203;28;20429;-90
2022/08/08 08:17:17;;;;;;;11.20;10.70;;;41.20;26.70;;;;;;4999642;28;20531;-89
2022/08/08 08:19:47;;;;;;;12.70;11.90;;;42.90;25.50;;;;;;5012649;28;20470;-90
2022/08/08 08:22:12;;;;;;;12.90;12.20;;;42.90;25.90;;;;;;5014170;28;20478;-89
2022/08/08 08:24:38;;;;;;;12.57;11.93;;;;;;;;;;4994190;28;20515;-90
2022/08/08 08:27:04;;;;;;;13.67;13.07;;;42.30;25.60;;;;;;5008010;28;20194;-90
2022/08/08 08:29:30;;;;;;;13.97;13.07;;;43.10;25.70;;;;;;5015560;28;20189;-88
2022/08/08 08:31:56;;;;;;;14.13;13.43;;;43.60;25.20;;;;;;4995900;28;20635;-89
2022/08/08 08:34:22;;;;;;;13.07;12.13;;;;;;;;;;5031213;28;20170;-88
2022/08/08 08:36:47;;;;;;;12.73;11.80;;;43.00;24.90;;;;;;5024265;28;20452;-89
2022/08/08 08:39:13;;;;;;;11.33;10.83;;;41.60;26.10;;;;;;5002198;28;20468;-89
2022/08/08 08:41:40;;;;;;;12.97;12.27;;;41.80;26.40;;;;;;5012916;28;20193;-89
2022/08/08 08:44:07;;;;;;;11.27;10.60;;;40.60;26.50;;;;;;4998566;28;20185;-89
2022/08/08 08:46:34;;;;;;;12.93;12.33;;;40.80;27.30;;;;;;4995118;28;20468;-89
2022/08/08 08:49:00;;;;;;;13.00;12.30;;;40.60;27.00;;;;;;5008543;28;20452;-90
2022/08/08 08:51:29;;;;;;;12.50;11.90;;;41.40;27.00;;;;;;5006869;28;20433;-90
2022/08/08 08:53:55;;;;;;;12.47;11.87;;;39.70;27.40;;;;;;5017895;28;20488;-88
2022/08/08 08:56:23;;;;;;;12.87;12.23;;;40.60;28.20;;;;;;5003751;28;20513;-89
2022/08/08 08:58:50;;;;;;;12.57;11.97;;;42.20;27.50;;;;;;5015424;28;20468;-89
2022/08/08 09:01:18;;;;;;;11.00;10.37;;;42.30;26.90;;;;;;4997864;28;20437;-89
2022/08/08 09:03:49;;;;;;;11.27;10.30;;;42.00;27.30;;;;;;5011518;28;20444;-89
2022/08/08 09:06:26;;;;;;;12.70;12.10;;;41.60;26.90;;;;;;5010081;28;20475;-90
2022/08/08 09:09:03;;;;;;;13.17;12.53;;;41.50;27.40;;;;;;5015695;28;20466;-89
2022/08/08 09:11:34;;;;;;;12.37;11.73;;;42.30;28.00;;;;;;5017019;28;20956;-91
2022/08/08 09:14:01;;;;;;;11.90;11.00;;;42.90;27.00;;;;;;5015752;28;20997;-90
2022/08/08 09:16:28;;;;;;;12.17;11.20;;;42.70;27.00;;;;;;4995788;28;20468;-91
2022/08/08 09:18:55;;;;;;;12.20;11.40;;;42.70;27.00;;;;;;5011743;28;20451;-90
2022/08/08 09:21:21;;;;;;;12.70;11.60;;;43.10;26.80;;;;;;5013417;28;20435;-90
2022/08/08 09:23:47;;;;;;;11.20;10.60;;;42.20;27.00;;;;;;5007563;28;20439;-89
2022/08/08 09:26:20;;;;;;;11.90;11.30;;;41.30;27.00;;;;;;5016470;28;20444;-87
2022/08/08 09:28:46;;;;;;;11.63;11.03;;;41.30;27.40;;;;;;4999204;28;20178;-89
2022/08/08 09:31:26;;;;;;;10.90;10.30;;;40.70;28.00;;;;;;5031557;28;20443;-88
2022/08/08 09:33:53;;;;;;;11.77;10.90;;;40.90;27.60;;;;;;5000728;28;20627;-89
2022/08/08 09:36:21;;;;;;;10.33;9.73;;;40.20;27.70;;;;;;4997503;28;20460;-90
2022/08/08 09:38:58;;;;;;;10.80;10.20;;;40.60;28.50;;;;;;5007041;28;20500;-90
2022/08/08 09:41:32;;;;;;;10.77;9.93;;;39.80;27.70;;;;;;5016308;28;21140;-90
2022/08/08 09:44:14;;;;;;;10.57;9.77;;;39.70;28.10;;;;;;5017198;28;20459;-89
2022/08/08 09:46:41;;;;;;;10.47;9.97;;;39.70;28.20;;;;;;5014515;28;20456;-90
2022/08/08 09:49:09;;;;;;;11.17;10.23;;;;;;;;;;4995159;28;20460;-89
2022/08/08 09:51:39;;;;;;;10.37;9.87;;;38.80;27.40;;;;;;5012158;28;20433;-89
2022/08/08 09:54:06;;;;;;;10.50;9.80;;;38.40;29.30;;;;;;5008271;28;20445;-89
2022/08/08 09:56:36;;;;;;;11.13;10.57;;;39.90;29.20;;;;;;5009123;28;20460;-90
2022/08/08 09:59:04;;;;;;;11.60;11.00;;;39.30;28.20;;;;;;5017329;28;20447;-90
2022/08/08 10:01:32;;;;;;;10.30;9.80;;;39.30;28.60;;;;;;5001405;28;20435;-90
2022/08/08 10:03:58;;;;;;;9.90;9.13;;;38.90;27.90;;;;;;5017541;28;20435;-90
2022/08/08 10:06:24;;;;;;;9.30;8.80;;;39.00;28.40;;;;;;5031245;28;20451;-88
2022/08/08 10:08:51;;;;;;;9.10;8.70;;;40.40;27.40;;;;;;5020890;28;20448;-89
2022/08/08 10:11:22;;;;;;;9.77;9.07;;;40.30;27.00;;;;;;5015888;28;20666;-88
2022/08/08 10:13:58;;;;;;;9.67;9.17;;;40.10;26.60;;;;;;5002052;28;20939;-89
2022/08/08 10:16:35;;;;;;;8.37;7.97;;;40.10;27.10;;;;;;5015816;28;20550;-88
2022/08/08 10:19:05;;;;;;;8.50;8.10;;;39.20;27.00;;;;;;5007231;28;20439;-89
2022/08/08 10:21:34;;;;;;;8.83;8.33;;;37.90;28.00;;;;;;5002152;28;20444;-89
2022/08/08 10:24:08;;;;;;;9.07;8.40;;;38.20;28.20;;;;;;5008037;28;20499;-90
2022/08/08 10:26:48;;;;;;;9.87;9.37;;;39.60;27.60;;;;;;5002801;28;20526;-89
2022/08/08 10:29:13;;;;;;;10.30;9.60;;;40.00;27.20;;;;;;5011536;28;20831;-89
2022/08/08 10:34:27;;;;;;;9.07;8.40;;;37.10;28.60;;;;;;5020339;28;20283;-89
2022/08/08 10:36:53;;;;;;;7.80;7.30;;;34.80;30.10;;;;;;5006148;28;20514;-89
2022/08/08 10:39:28;;;;;;;7.30;6.90;;;33.30;32.00;;;;;;5006031;28;20471;-89
2022/08/08 10:42:02;;;;;;;7.13;6.67;;;32.30;33.60;;;;;;5027504;28;20460;-90
2022/08/08 10:44:35;;;;;;;8.20;6.83;;;31.90;34.10;;;;;;5007087;28;20450;-90
2022/08/08 10:47:18;;;;;;;7.60;7.10;;;31.60;35.10;;;;;;5016870;28;20467;-91
2022/08/08 10:49:56;;;;;;;7.60;7.00;;;30.80;35.00;;;;;;5029354;28;21053;-90
2022/08/08 10:52:24;;;;;;;7.07;6.70;;;30.80;35.40;;;;;;5026973;28;20451;-91
2022/08/08 10:54:54;;;;;;;6.50;6.20;;;30.50;35.60;;;;;;5016612;28;20447;-92
2022/08/08 10:57:20;;;;;;;5.37;5.07;;;30.40;35.80;;;;;;5014493;28;20456;-89
2022/08/08 10:59:57;;;;;;;5.03;4.70;;;31.90;37.30;;;;;;5026716;28;20984;-89
2022/08/08 11:02:33;;;;;;;5.37;5.07;;;29.80;36.80;;;;;;5024560;28;20168;-90
2022/08/08 11:05:01;;;;;;;6.40;4.93;;;29.80;37.20;;;;;;5028822;28;20432;-91
2022/08/08 11:07:32;;;;;;;5.83;5.20;;;29.60;37.40;;;;;;5007443;28;20461;-90
2022/08/08 11:10:05;;;;;;;6.80;5.17;;;29.40;37.10;;;;;;5025247;28;20425;-91
2022/08/08 11:12:33;;;;;;;4.50;4.30;;;29.40;36.80;;;;;;5021916;28;20463;-91
2022/08/08 11:15:00;;;;;;;5.20;4.80;;;29.30;37.20;;;;;;5008457;28;20435;-91
2022/08/08 11:17:28;;;;;;;4.40;4.10;;;29.40;37.00;;;;;;5016212;28;20471;-90
2022/08/08 11:19:54;;;;;;;3.63;2.97;;;29.50;37.50;;;;;;5018551;28;20894;-91
2022/08/08 11:22:30;;;;;;;2.90;2.00;;;28.90;37.20;;;;;;5021352;28;20853;-89
2022/08/08 11:25:01;;;;;;;3.30;2.23;;;30.00;38.70;;;;;;5019637;28;20446;-90
2022/08/08 11:27:32;;;;;;;4.90;2.50;;;29.00;37.80;;;;;;5022795;28;21163;-91
2022/08/08 11:29:59;;;;;;;5.80;2.30;;;29.30;37.60;;;;;;5023101;28;20443;-90
2022/08/08 11:32:27;;;;;;;2.33;1.90;;;29.60;36.90;;;;;;5022679;28;20428;-94
2022/08/08 11:34:55;;;;;;;7.03;2.13;;;29.60;37.40;;;;;;5028583;28;20935;-90
2022/08/08 11:37:24;;;;;;;2.53;2.10;;;29.40;36.70;;;;;;5017618;28;20434;-88
2022/08/08 11:39:51;;;;;;;3.97;2.30;;;29.40;36.50;;;;;;5022280;28;20461;-89
2022/08/08 11:42:18;;;;;;;3.67;2.43;;;30.80;38.10;;;;;;5019157;28;20432;-88
2022/08/08 11:44:44;;;;;;;5.70;2.23;;;29.40;37.20;;;;;;5030332;28;20449;-90
2022/08/08 11:47:10;;;;;;;2.60;2.00;;;31.40;38.60;;;;;;5016249;28;20459;-91
2022/08/08 11:49:38;;;;;;;3.17;2.13;;;30.70;36.90;;;;;;5015614;28;20942;-91
2022/08/08 11:52:05;;;;;;;2.77;2.10;;;30.20;36.60;;;;;;5022538;28;20425;-91
2022/08/08 11:54:33;;;;;;;6.53;2.37;;;30.00;36.60;;;;;;5003595;28;20448;-90
2022/08/08 11:57:09;;;;;;;4.73;2.10;;;30.10;36.70;;;;;;5010505;28;20437;-91
2022/08/08 11:59:37;;;;;;;2.27;2.07;;;30.40;36.30;;;;;;5008293;28;20456;-90
2022/08/08 12:02:04;;;;;;;1.50;1.40;;;30.60;34.40;;;;;;5015321;28;20420;-91
2022/08/08 12:04:30;;;;;;;2.90;2.60;;;31.90;35.70;;;;;;5020287;28;20445;-88
2022/08/08 12:07:05;;;;;;;2.73;1.97;;;30.80;35.10;;;;;;5020105;28;20437;-88
2022/08/08 12:09:31;;;;;;;4.20;1.70;;;30.50;34.70;;;;;;5016702;28;20223;-88
2022/08/08 12:11:57;;;;;;;3.00;2.10;;;30.40;36.00;;;;;;5019971;28;20428;-90
2022/08/08 12:14:24;;;;;;;4.10;2.40;;;30.00;35.50;;;;;;5020754;28;20182;-89
2022/08/08 12:16:54;;;;;;;4.00;1.90;;;29.90;35.20;;;;;;5009314;28;20201;-91
2022/08/08 12:19:21;;;;;;;3.63;1.90;;;29.80;35.80;;;;;;5022918;28;20457;-90
2022/08/08 12:21:47;;;;;;;2.40;1.63;;;;;;;;;;5012164;28;20436;-91
2022/08/08 12:24:18;;;;;;;3.97;1.60;;;29.90;34.20;;;;;;5011529;28;20787;-90
2022/08/08 12:26:52;;;;;;;3.03;1.80;;;30.30;33.90;;;;;;4997923;28;20453;-89
2022/08/08 12:29:33;;;;;;;6.93;1.90;;;30.10;34.40;;;;;;5007045;28;20846;-91
2022/08/08 12:32:03;;;;;;;4.00;1.80;;;31.50;35.50;;;;;;5030512;28;20444;-88
2022/08/08 12:34:44;;;;;;;3.10;2.10;;;29.90;33.20;;;;;;5029646;28;21509;-90
2022/08/08 12:37:17;;;;;;;3.90;1.40;;;29.80;34.60;;;;;;5015962;28;20588;-88
2022/08/08 12:39:43;;;;;;;5.43;1.53;;;30.00;33.60;;;;;;5019161;28;20533;-89
2022/08/08 12:42:08;;;;;;;1.80;1.70;;;32.40;35.40;;;;;;5014004;28;20875;-90
2022/08/08 12:44:35;;;;;;;2.63;1.90;;;30.10;33.60;;;;;;4994656;28;20553;-88
2022/08/08 12:47:02;;;;;;;3.47;2.13;;;30.30;33.20;;;;;;5008136;28;20276;-91
2022/08/08 12:49:30;;;;;;;6.10;2.57;;;30.50;34.60;;;;;;5001634;28;20929;-92
2022/08/08 12:51:57;;;;;;;3.40;1.80;;;30.50;34.20;;;;;;5006714;28;20437;-91
2022/08/08 12:54:25;;;;;;;6.40;2.60;;;30.40;34.20;;;;;;4996602;28;21095;-91
2022/08/08 12:56:51;;;;;;;2.90;1.80;;;30.70;34.20;;;;;;5001142;28;20432;-89
2022/08/08 12:59:29;;;;;;;3.33;2.33;;;30.60;34.20;;;;;;5009395;28;20469;-88
2022/08/08 13:01:57;;;;;;;4.63;2.00;;;30.70;33.60;;;;;;5017407;28;20428;-91
2022/08/08 13:04:25;;;;;;;2.40;2.20;;;30.60;33.70;;;;;;5003231;28;20468;-89
2022/08/08 13:07:06;;;;;;;9.53;2.23;;;30.60;34.00;;;;;;5015797;28;20482;-90
2022/08/08 13:09:38;;;;;;;3.53;2.33;;;30.70;33.60;;;;;;5008358;28;20451;-91
2022/08/08 13:12:33;;;;;;;3.30;2.57;;;30.60;33.90;;;;;;5022530;28;20469;-91
2022/08/08 13:15:03;;;;;;;2.50;2.30;;;30.40;33.90;;;;;;5009282;28;20445;-90
2022/08/08 13:17:30;;;;;;;2.73;2.13;;;30.50;34.30;;;;;;5002624;28;20480;-92
2022/08/08 13:19:56;;;;;;;2.53;2.20;;;29.40;33.60;;;;;;5005386;28;20452;-91
2022/08/08 13:22:22;;;;;;;2.40;2.20;;;30.00;34.70;;;;;;5013450;28;20424;-90
2022/08/08 13:24:48;;;;;;;2.70;2.40;;;29.20;34.30;;;;;;5013402;28;20193;-90
2022/08/08 13:27:19;;;;;;;2.63;2.10;;;29.70;34.80;;;;;;4999815;28;20456;-91
2022/08/08 13:29:52;;;;;;;3.30;2.27;;;29.70;34.40;;;;;;5007501;28;20712;-92
2022/08/08 13:32:18;;;;;;;3.43;3.13;;;30.00;33.70;;;;;;4996967;28;20430;-89
2022/08/08 13:34:51;;;;;;;2.10;2.00;;;30.20;33.90;;;;;;5019137;28;20441;-90
2022/08/08 13:37:18;;;;;;;2.40;2.20;;;30.30;34.00;;;;;;5004650;28;20476;-88
2022/08/08 13:39:48;;;;;;;2.70;2.30;;;30.30;34.10;;;;;;5036099;28;20556;-88
2022/08/08 13:42:14;;;;;;;3.77;2.23;;;30.00;33.30;;;;;;5036993;28;20430;-89
2022/08/08 13:44:40;;;;;;;4.03;2.33;;;;;;;;;;5008034;28;20430;-91
2022/08/08 13:47:06;;;;;;;2.63;2.43;;;30.50;33.70;;;;;;5020968;28;20464;-89
2022/08/08 13:49:31;;;;;;;4.80;2.90;;;30.40;33.40;;;;;;5023828;28;21045;-91
2022/08/08 13:52:04;;;;;;;5.20;2.27;;;30.40;34.10;;;;;;5016368;28;20181;-90
2022/08/08 13:54:35;;;;;;;2.57;2.30;;;29.90;34.20;;;;;;5022053;28;20222;-90